createdAt,value
2022-08-14T00:02:01.526Z,2.45
2022-08-14T00:04:35.763Z,2.63
2022-08-14T00:07:10.718Z,3.15
2022-08-14T00:10:02.023Z,2.80
2022-08-14T00:12:33.447Z,2.50
2022-08-14T00:15:19.303Z,3.00
2022-08-14T00:17:53.293Z,3.05
2022-08-14T00:20:30.254Z,2.95
2022-08-14T00:23:12.059Z,2.83
2022-08-14T00:25:54.085Z,2.97
2022-08-14T00:28:35.542Z,2.92
2022-08-14T00:31:08.113Z,3.00
2022-08-14T00:33:52.294Z,3.30
2022-08-14T00:36:36.735Z,3.40
2022-08-14T00:39:14.998Z,3.00
2022-08-14T00:41:46.553Z,3.15
2022-08-14T00:44:14.711Z,3.45
2022-08-14T00:46:50.468Z,3.30
2022-08-14T00:49:21.124Z,3.28
2022-08-14T00:51:52.240Z,3.63
2022-08-14T00:54:21.998Z,3.40
2022-08-14T00:56:55.357Z,3.63
2022-08-14T00:59:25.108Z,3.28
2022-08-14T01:01:54.971Z,3.50
2022-08-14T01:04:51.912Z,3.80
2022-08-14T01:07:20.893Z,3.40
2022-08-14T01:09:50.777Z,3.65
2022-08-14T01:12:26.332Z,3.83
2022-08-14T01:14:58.279Z,3.63
2022-08-14T01:17:49.610Z,4.15
2022-08-14T01:20:50.914Z,4.20
2022-08-14T01:23:21.805Z,4.20
2022-08-14T01:25:51.867Z,4.05
2022-08-14T01:28:46.336Z,4.15
2022-08-14T01:31:12.414Z,3.95
2022-08-14T01:33:59.347Z,4.18
2022-08-14T01:36:36.726Z,3.92
2022-08-14T01:39:12.914Z,4.10
2022-08-14T01:41:43.379Z,4.47
2022-08-14T01:44:33.562Z,4.57
2022-08-14T01:47:09.596Z,4.53
2022-08-14T01:49:45.962Z,4.95
2022-08-14T01:52:33.568Z,4.30
2022-08-14T01:55:03.885Z,4.25
2022-08-14T01:58:00.640Z,4.70
2022-08-14T02:00:27.690Z,5.07
2022-08-14T02:02:57.093Z,4.85
2022-08-14T02:05:29.366Z,5.10
2022-08-14T02:08:09.798Z,4.70
2022-08-14T02:10:46.626Z,4.70
2022-08-14T02:13:19.064Z,5.05
2022-08-14T02:15:48.419Z,4.63
2022-08-14T02:18:18.196Z,4.72
2022-08-14T02:20:48.659Z,4.50
2022-08-14T02:23:16.467Z,4.90
2022-08-14T02:25:54.341Z,5.00
2022-08-14T02:28:58.306Z,5.22
2022-08-14T02:31:12.215Z,4.95
2022-08-14T02:33:43.310Z,5.45
2022-08-14T02:37:04.720Z,5.05
2022-08-14T02:39:00.654Z,5.15
2022-08-14T02:41:31.839Z,4.30
2022-08-14T02:44:06.517Z,4.82
2022-08-14T02:46:36.158Z,5.38
2022-08-14T02:49:08.915Z,5.45
2022-08-14T02:51:39.251Z,5.30
2022-08-14T02:54:08.310Z,5.20
2022-08-14T02:57:16.476Z,5.53
2022-08-14T02:59:28.806Z,5.10
2022-08-14T03:01:57.343Z,4.93
2022-08-14T03:04:28.852Z,5.53
2022-08-14T03:07:07.408Z,5.68
2022-08-14T03:10:25.142Z,5.85
2022-08-14T03:12:30.752Z,4.82
2022-08-14T03:15:00.426Z,5.90
2022-08-14T03:17:31.901Z,5.28
2022-08-14T03:20:11.776Z,5.70
2022-08-14T03:22:42.071Z,6.00
2022-08-14T03:25:12.082Z,5.43
2022-08-14T03:27:48.585Z,6.00
2022-08-14T03:30:39.105Z,5.90
2022-08-14T03:33:12.116Z,5.70
2022-08-14T03:36:07.625Z,5.43
2022-08-14T03:39:16.104Z,5.95
2022-08-14T03:41:20.202Z,6.47
2022-08-14T03:43:57.724Z,6.70
2022-08-14T03:46:38.976Z,6.53
2022-08-14T03:49:29.273Z,6.22
2022-08-14T03:52:01.081Z,6.13
2022-08-14T03:54:30.038Z,6.15
2022-08-14T03:57:02.787Z,5.80
2022-08-14T03:59:33.987Z,6.30
2022-08-14T04:02:04.748Z,6.13
2022-08-14T04:04:53.270Z,6.25
2022-08-14T04:07:22.374Z,6.40
2022-08-14T04:09:50.171Z,6.72
2022-08-14T04:12:26.440Z,6.22
2022-08-14T04:14:56.308Z,6.47
2022-08-14T04:17:24.071Z,6.40
2022-08-14T04:19:51.997Z,6.47
2022-08-14T04:22:20.560Z,6.20
2022-08-14T04:24:50.316Z,6.30
2022-08-14T04:27:18.788Z,6.40
2022-08-14T04:29:46.536Z,6.53
2022-08-14T04:33:02.615Z,6.68
2022-08-14T04:35:07.722Z,6.57
2022-08-14T04:37:56.439Z,6.32
2022-08-14T04:40:42.086Z,6.70
2022-08-14T04:43:38.498Z,6.40
2022-08-14T04:46:09.489Z,6.65
2022-08-14T04:48:43.707Z,6.25
2022-08-14T04:51:20.406Z,7.35
2022-08-14T04:53:50.151Z,6.75
2022-08-14T04:56:30.456Z,6.40
2022-08-14T04:59:10.630Z,5.95
2022-08-14T05:01:45.241Z,5.82
2022-08-14T05:04:20.191Z,5.47
2022-08-14T05:06:49.686Z,5.40
2022-08-14T05:09:21.842Z,5.70
2022-08-14T05:11:51.309Z,5.13
2022-08-14T05:14:46.730Z,5.07
2022-08-14T05:17:10.556Z,5.35
2022-08-14T05:19:44.941Z,4.40
2022-08-14T05:22:28.778Z,4.75
2022-08-14T05:24:56.549Z,4.28
2022-08-14T05:27:24.317Z,4.90
2022-08-14T05:29:56.685Z,4.57
2022-08-14T05:32:27.374Z,4.63
2022-08-14T05:34:59.114Z,4.70
2022-08-14T05:37:28.706Z,4.60
2022-08-14T05:39:59.178Z,4.40
2022-08-14T05:42:29.396Z,4.30
2022-08-14T05:45:00.323Z,4.30
2022-08-14T05:47:28.902Z,4.28
2022-08-14T05:50:03.344Z,4.40
2022-08-14T05:52:39.175Z,3.78
2022-08-14T05:55:09.462Z,4.50
2022-08-14T05:57:47.663Z,3.92
2022-08-14T06:00:28.192Z,3.88
2022-08-14T06:02:58.511Z,4.15
2022-08-14T06:05:30.337Z,3.92
2022-08-14T06:07:59.162Z,3.80
2022-08-14T06:10:28.728Z,3.97
2022-08-14T06:12:58.241Z,3.30
2022-08-14T06:15:29.959Z,3.78
2022-08-14T06:17:59.879Z,3.50
2022-08-14T06:20:31.323Z,3.55
2022-08-14T06:23:06.347Z,3.28
2022-08-14T06:25:36.827Z,3.85
2022-08-14T06:28:05.260Z,3.42
2022-08-14T06:30:57.222Z,3.67
2022-08-14T06:33:30.167Z,3.75
2022-08-14T06:36:18.278Z,3.78
2022-08-14T06:38:46.406Z,4.03
2022-08-14T06:49:16.598Z,3.25
2022-08-14T06:52:54.642Z,3.35
2022-08-14T06:56:21.255Z,3.45
2022-08-14T07:00:27.290Z,3.42
2022-08-14T07:07:17.234Z,3.53
2022-08-14T07:09:50.713Z,3.10
2022-08-14T07:12:54.653Z,3.25
2022-08-14T07:15:07.896Z,3.35
2022-08-14T07:17:36.496Z,3.55
2022-08-14T07:20:07.202Z,3.42
2022-08-14T07:22:55.976Z,3.03
2022-08-14T07:25:32.814Z,3.10
2022-08-14T07:28:01.533Z,3.50
2022-08-14T07:30:33.767Z,3.13
2022-08-14T07:33:02.891Z,3.00
2022-08-14T07:35:37.525Z,3.05
2022-08-14T07:38:20.234Z,3.10
2022-08-14T07:40:52.926Z,3.00
2022-08-14T07:43:21.638Z,3.15
2022-08-14T07:45:50.953Z,3.00
2022-08-14T07:48:25.288Z,2.65
2022-08-14T07:50:59.477Z,2.90
2022-08-14T07:53:36.648Z,2.70
2022-08-14T07:56:44.492Z,2.63
2022-08-14T07:58:58.793Z,2.53
2022-08-14T08:01:30.773Z,2.45
2022-08-14T08:04:00.313Z,2.75
2022-08-14T08:06:30.081Z,2.67
2022-08-14T08:09:03.212Z,2.45
2022-08-14T08:11:37.444Z,2.70
2022-08-14T08:14:16.516Z,2.33
2022-08-14T08:16:47.196Z,2.53
2022-08-14T08:19:18.765Z,2.60
2022-08-14T08:21:47.678Z,2.55
2022-08-14T08:24:19.925Z,2.22
2022-08-14T08:26:50.635Z,2.40
2022-08-14T08:29:28.360Z,2.50
2022-08-14T08:32:01.870Z,2.60
2022-08-14T08:34:45.308Z,2.35
2022-08-14T08:37:14.336Z,2.40
2022-08-14T08:40:02.265Z,2.40
2022-08-14T08:42:38.222Z,2.00
2022-08-14T08:45:11.865Z,2.28
2022-08-14T08:47:41.040Z,2.38
2022-08-14T08:50:23.425Z,2.10
2022-08-14T08:53:02.158Z,2.13
2022-08-14T08:55:33.933Z,2.40
2022-08-14T08:58:12.448Z,2.20
2022-08-14T09:00:54.129Z,2.00
2022-08-14T09:03:25.625Z,2.08
2022-08-14T09:05:58.682Z,2.45
2022-08-14T09:08:31.299Z,2.05
2022-08-14T09:11:02.987Z,1.92
2022-08-14T09:13:50.404Z,2.20
2022-08-14T09:16:21.882Z,1.88
2022-08-14T09:18:53.281Z,2.05
2022-08-14T09:21:23.806Z,2.42
2022-08-14T09:24:29.599Z,1.98
2022-08-14T09:26:43.975Z,1.95
2022-08-14T09:29:23.240Z,1.95
2022-08-14T09:31:57.680Z,1.98
2022-08-14T09:34:58.458Z,2.00
2022-08-14T09:37:41.740Z,1.90
2022-08-14T09:40:21.991Z,2.05
2022-08-14T09:42:58.423Z,1.80
2022-08-14T09:45:39.996Z,1.88
2022-08-14T09:48:27.582Z,2.00
2022-08-14T09:54:18.168Z,1.80
2022-08-14T09:56:30.398Z,2.03
2022-08-14T09:59:01.157Z,1.80
2022-08-14T10:01:37.660Z,1.77
2022-08-14T10:04:32.842Z,2.03
2022-08-14T10:07:04.942Z,2.00
2022-08-14T10:09:35.043Z,1.70
2022-08-14T10:12:05.049Z,1.83
2022-08-14T10:14:53.391Z,2.00
2022-08-14T10:17:38.464Z,2.08
2022-08-14T10:20:39.380Z,1.88
2022-08-14T10:23:12.708Z,1.40
2022-08-14T10:25:46.316Z,1.50
2022-08-14T10:28:51.597Z,1.90
2022-08-14T10:31:03.564Z,1.40
2022-08-14T10:33:34.188Z,1.65
2022-08-14T10:36:02.725Z,1.80
2022-08-14T10:38:33.712Z,1.70
2022-08-14T10:41:13.200Z,1.85
2022-08-14T10:43:42.872Z,1.60
2022-08-14T10:47:37.357Z,1.70
2022-08-14T10:49:05.141Z,1.67
2022-08-14T10:51:39.887Z,1.50
2022-08-14T10:54:26.085Z,1.58
2022-08-14T10:56:59.986Z,1.90
2022-08-14T10:59:43.401Z,1.92
2022-08-14T11:02:44.864Z,1.80
2022-08-14T11:05:14.829Z,1.55
2022-08-14T11:07:57.176Z,1.70
2022-08-14T11:10:42.769Z,1.88
2022-08-14T11:13:12.054Z,1.60
2022-08-14T11:15:41.033Z,1.75
2022-08-14T11:18:08.837Z,2.00
2022-08-14T11:20:54.142Z,1.70
2022-08-14T11:23:37.727Z,1.58
2022-08-14T11:26:10.330Z,1.60
2022-08-14T11:28:47.832Z,1.50
2022-08-14T11:31:19.726Z,1.80
2022-08-14T11:33:51.149Z,1.83
2022-08-14T11:36:24.363Z,1.70
2022-08-14T11:39:33.725Z,1.73
2022-08-14T11:42:57.102Z,1.80
2022-08-14T11:44:53.839Z,1.80
2022-08-14T11:47:24.673Z,1.70
2022-08-14T11:49:53.226Z,2.25
2022-08-14T12:04:53.178Z,2.10
2022-08-14T12:07:24.798Z,2.03
2022-08-14T12:09:56.381Z,2.33
2022-08-14T12:13:03.457Z,1.98
2022-08-14T12:15:36.280Z,2.20
2022-08-14T12:18:06.775Z,1.98
2022-08-14T12:21:00.155Z,2.35
2022-08-14T12:23:51.843Z,2.03
2022-08-14T12:26:39.178Z,1.88
2022-08-14T12:29:13.200Z,1.55
2022-08-14T12:31:44.898Z,2.00
2022-08-14T12:34:20.613Z,1.80
2022-08-14T12:36:51.460Z,1.50
2022-08-14T12:39:23.843Z,1.70
2022-08-14T12:41:57.315Z,1.60
2022-08-14T12:44:54.379Z,1.55
2022-08-14T12:47:31.265Z,1.83
2022-08-14T12:49:59.475Z,1.60
2022-08-14T12:52:42.921Z,1.98
2022-08-14T12:58:29.273Z,1.70
2022-08-14T13:01:16.634Z,1.88
2022-08-14T13:03:47.963Z,1.95
2022-08-14T13:06:20.351Z,2.03
2022-08-14T13:08:53.202Z,1.70
2022-08-14T13:11:25.540Z,1.60
2022-08-14T13:13:59.567Z,1.50
2022-08-14T13:16:37.748Z,1.80
2022-08-14T13:19:11.075Z,2.17
2022-08-14T13:22:05.047Z,1.67
2022-08-14T13:24:39.993Z,1.63
2022-08-14T13:27:11.130Z,1.65
2022-08-14T13:29:46.471Z,1.60
2022-08-14T13:32:16.336Z,1.60
2022-08-14T13:35:17.479Z,1.80
2022-08-14T13:37:54.165Z,1.75
2022-08-14T13:40:29.810Z,1.90
2022-08-14T13:42:59.512Z,1.48
2022-08-14T13:45:59.722Z,1.77
2022-08-14T13:48:30.715Z,2.10
2022-08-14T13:51:03.848Z,1.60
2022-08-14T13:53:41.477Z,1.60
2022-08-14T13:56:14.945Z,1.80
2022-08-14T13:59:07.112Z,1.60
2022-08-14T14:01:42.860Z,1.85
2022-08-14T14:04:19.213Z,1.88
2022-08-14T14:06:51.188Z,1.80
2022-08-14T14:09:43.914Z,1.63
2022-08-14T14:12:37.534Z,1.50
2022-08-14T14:15:17.793Z,1.50
2022-08-14T14:18:15.321Z,1.58
2022-08-14T14:23:57.260Z,1.77
2022-08-14T14:26:25.715Z,1.92
2022-08-14T14:28:57.112Z,2.10
2022-08-14T14:31:30.247Z,1.90
2022-08-14T14:34:00.993Z,1.85
2022-08-14T14:36:36.406Z,1.67
2022-08-14T14:39:07.471Z,2.00
2022-08-14T14:41:43.692Z,1.80
2022-08-14T14:44:15.873Z,2.00
2022-08-14T14:46:51.038Z,1.60
2022-08-14T14:49:25.899Z,1.77
2022-08-14T14:52:23.373Z,1.90
2022-08-14T14:54:56.784Z,1.80
2022-08-14T14:57:30.368Z,2.25
2022-08-14T15:00:06.834Z,1.88
2022-08-14T15:02:42.046Z,2.10
2022-08-14T15:05:18.145Z,1.88
2022-08-14T15:07:54.227Z,1.92
2022-08-14T15:13:33.469Z,2.03
2022-08-14T15:16:01.445Z,2.10
2022-08-14T15:18:36.642Z,2.22
2022-08-14T15:21:07.571Z,2.15
2022-08-14T15:27:09.561Z,2.20
2022-08-14T15:30:06.656Z,1.85
2022-08-14T15:45:25.450Z,2.08
2022-08-14T15:47:55.989Z,2.05
2022-08-14T15:50:26.148Z,1.80
2022-08-14T15:52:54.754Z,2.15
2022-08-14T15:55:23.291Z,2.10
2022-08-14T15:58:03.505Z,2.03
2022-08-14T16:00:54.628Z,2.15
2022-08-14T16:03:35.133Z,2.38
2022-08-14T16:06:05.904Z,1.90
2022-08-14T16:08:42.664Z,2.20
2022-08-14T16:11:17.093Z,2.40
2022-08-14T16:13:47.849Z,2.20
2022-08-14T16:16:48.192Z,2.10
2022-08-14T16:19:11.499Z,2.10
2022-08-14T16:22:01.446Z,2.45
2022-08-14T16:24:35.961Z,3.15
2022-08-14T16:27:37.071Z,2.10
2022-08-14T16:30:24.780Z,2.70
2022-08-14T16:32:59.690Z,2.83
2022-08-14T16:35:43.139Z,5.10
2022-08-14T16:38:48.021Z,3.03
2022-08-14T16:41:26.305Z,2.30
2022-08-14T16:43:59.374Z,2.17
2022-08-14T16:46:28.684Z,2.35
2022-08-14T16:48:59.114Z,2.40
2022-08-14T16:51:27.974Z,2.45
2022-08-14T16:53:58.919Z,2.40
2022-08-14T16:56:30.868Z,2.45
2022-08-14T16:59:07.564Z,2.10
2022-08-14T17:01:36.951Z,2.30
2022-08-14T17:04:14.822Z,2.40
2022-08-14T17:06:54.838Z,2.10
2022-08-14T17:09:29.807Z,2.40
2022-08-14T17:12:07.555Z,2.38
2022-08-14T17:14:51.138Z,2.13
2022-08-14T17:17:21.235Z,2.70
2022-08-14T17:19:59.849Z,2.50
2022-08-14T17:22:50.050Z,2.03
2022-08-14T17:25:22.519Z,2.22
2022-08-14T17:28:52.131Z,2.42
2022-08-14T17:31:02.426Z,2.35
2022-08-14T17:33:33.475Z,2.42
2022-08-14T17:36:20.836Z,2.60
2022-08-14T17:39:06.517Z,2.20
2022-08-14T17:41:38.604Z,2.30
2022-08-14T17:44:33.482Z,2.47
2022-08-14T17:47:13.345Z,2.15
2022-08-14T17:49:52.135Z,2.40
2022-08-14T17:52:34.781Z,2.97
2022-08-14T17:56:03.336Z,2.40
2022-08-14T17:58:01.430Z,2.22
2022-08-14T18:00:51.463Z,2.58
2022-08-14T18:03:50.891Z,2.47
2022-08-14T18:06:39.085Z,2.40
2022-08-14T18:09:00.483Z,2.30
2022-08-14T18:11:45.522Z,2.20
2022-08-14T18:14:32.685Z,2.35
2022-08-14T18:17:04.589Z,2.40
2022-08-14T18:19:36.540Z,2.47
2022-08-14T18:22:31.255Z,2.20
2022-08-14T18:25:02.570Z,2.55
2022-08-14T18:27:36.157Z,2.55
2022-08-14T18:30:32.009Z,2.38
2022-08-14T18:32:55.425Z,2.25
2022-08-14T18:35:45.707Z,2.40
2022-08-14T18:38:26.147Z,2.28
2022-08-14T18:41:36.424Z,2.42
2022-08-14T18:44:10.182Z,2.63
2022-08-14T18:47:17.316Z,2.60
2022-08-14T18:50:01.120Z,2.63
2022-08-14T18:52:45.785Z,3.00
2022-08-14T18:55:55.842Z,3.00
2022-08-14T18:58:34.153Z,2.80
2022-08-14T19:01:04.536Z,2.70
2022-08-14T19:03:48.762Z,2.95
2022-08-14T19:06:16.892Z,2.78
2022-08-14T19:08:47.168Z,2.95
2022-08-14T19:11:50.394Z,2.78
2022-08-14T19:14:47.535Z,2.80
2022-08-14T19:18:13.845Z,2.85
2022-08-14T19:20:47.450Z,2.70
2022-08-14T19:23:18.414Z,2.88
2022-08-14T19:25:52.739Z,2.90
2022-08-14T19:28:30.823Z,2.72
2022-08-14T19:31:42.393Z,3.20
2022-08-14T19:34:40.400Z,2.97
2022-08-14T19:37:47.445Z,3.15
2022-08-14T19:40:30.033Z,2.90
2022-08-14T19:42:58.536Z,3.20
2022-08-14T19:45:30.071Z,3.17
2022-08-14T19:48:05.257Z,2.90
2022-08-14T19:50:40.250Z,2.95
2022-08-14T19:53:12.081Z,3.08
2022-08-14T19:55:47.186Z,2.92
2022-08-14T19:58:16.439Z,3.10
2022-08-14T20:00:55.842Z,3.00
2022-08-14T20:03:26.284Z,3.10
2022-08-14T20:06:14.378Z,2.85
2022-08-14T20:10:58.747Z,3.22
2022-08-14T20:11:58.508Z,3.10
2022-08-14T20:14:29.900Z,3.05
2022-08-14T20:17:06.339Z,3.05
2022-08-14T20:19:37.766Z,2.88
2022-08-14T20:22:37.218Z,2.78
2022-08-14T20:25:11.479Z,3.03
2022-08-14T20:27:44.083Z,3.15
2022-08-14T20:30:34.513Z,3.30
2022-08-14T20:33:07.687Z,3.00
2022-08-14T20:35:43.474Z,3.15
2022-08-14T20:38:30.273Z,3.05
2022-08-14T20:41:01.774Z,3.13
2022-08-14T20:43:53.721Z,3.10
2022-08-14T20:46:29.631Z,3.03
2022-08-14T20:49:00.003Z,3.20
2022-08-14T20:51:37.126Z,2.83
2022-08-14T20:54:07.517Z,3.30
2022-08-14T20:56:38.206Z,3.15
2022-08-14T20:59:18.058Z,3.22
2022-08-14T21:01:51.917Z,3.00
2022-08-14T21:04:31.440Z,3.03
2022-08-14T21:07:24.775Z,3.05
2022-08-14T21:10:06.492Z,2.80
2022-08-14T21:13:25.395Z,3.30
2022-08-14T21:15:40.401Z,2.97
2022-08-14T21:18:13.795Z,3.20
2022-08-14T21:20:46.258Z,2.90
2022-08-14T21:23:15.967Z,3.55
2022-08-14T21:25:45.661Z,3.03
2022-08-14T21:28:29.296Z,3.60
2022-08-14T21:30:58.565Z,3.35
2022-08-14T21:33:27.871Z,3.42
2022-08-14T21:36:00.122Z,3.38
2022-08-14T21:38:37.303Z,3.08
2022-08-14T21:41:42.506Z,3.63
2022-08-14T21:44:05.272Z,2.97
2022-08-14T21:46:50.047Z,3.25
2022-08-14T21:49:22.742Z,3.53
2022-08-14T21:51:57.800Z,3.17
2022-08-14T21:54:49.684Z,3.35
2022-08-14T21:57:56.652Z,3.15
2022-08-14T22:00:31.578Z,3.28
2022-08-14T22:03:03.422Z,3.45
2022-08-14T22:05:33.106Z,3.10
2022-08-14T22:08:03.122Z,3.40
2022-08-14T22:10:33.770Z,3.40
2022-08-14T22:13:02.280Z,3.42
2022-08-14T22:15:33.465Z,3.72
2022-08-14T22:18:04.003Z,3.13
2022-08-14T22:20:36.278Z,3.58
2022-08-14T22:23:08.500Z,3.95
2022-08-14T22:25:41.216Z,3.22
2022-08-14T22:28:14.680Z,3.63
2022-08-14T22:30:44.614Z,3.55
2022-08-14T22:33:13.294Z,3.50
2022-08-14T22:35:43.970Z,3.42
2022-08-14T22:38:36.991Z,3.53
2022-08-14T22:41:25.708Z,3.42
2022-08-14T22:43:50.941Z,3.67
2022-08-14T22:46:20.135Z,3.50
2022-08-14T22:48:49.704Z,3.50
2022-08-14T22:51:23.270Z,3.13
2022-08-14T22:53:53.996Z,3.70
2022-08-14T22:56:30.188Z,3.40
2022-08-14T22:59:01.414Z,3.67
2022-08-14T23:01:55.621Z,3.80
2022-08-14T23:04:34.381Z,3.47
2022-08-14T23:07:21.645Z,3.60
2022-08-14T23:09:55.814Z,3.53
2022-08-14T23:12:28.080Z,3.47
2022-08-14T23:14:57.515Z,3.50
2022-08-14T23:17:25.679Z,3.80
2022-08-14T23:19:56.202Z,3.40
2022-08-14T23:22:26.476Z,3.00
2022-08-14T23:24:56.747Z,3.58
2022-08-14T23:27:31.647Z,3.55
2022-08-14T23:30:00.066Z,3.88
2022-08-14T23:32:30.141Z,3.25
2022-08-14T23:35:00.683Z,3.38
2022-08-14T23:37:31.183Z,3.85
2022-08-14T23:39:59.850Z,3.30
2022-08-14T23:42:40.006Z,3.90
2022-08-14T23:45:09.750Z,3.50
2022-08-14T23:47:51.749Z,3.85
2022-08-14T23:50:34.196Z,3.50
2022-08-14T23:53:07.100Z,3.67
2022-08-14T23:55:35.742Z,3.42
2022-08-14T23:58:10.139Z,3.50
